Terminal Aerodrome Forecast
Issued by NWS Sterling, VA

Current Version | Previous Version | Graphics & Text | Print | Product List | Glossary On
Versions: 1 2 3 4 5 6 7 8 9 10 11 12 13 14 15 16 17 18 19 20 21 22 23 24
000
FTUS41 KLWX 230800 AAA
TAFIAD
TAF AMD
KIAD 230851Z 2309/2412 20006KT P6SM BKN080
     FM231000 20006KT P6SM SCT080
     FM232000 16007KT P6SM BKN110
     FM240100 14007KT 5SM -RA OVC035
     FM240200 13008KT 3SM RA OVC025
     FM240500 15013KT 2SM RA OVC008 WS020/16045KT
     FM240600 15014KT 1SM RA OVC003 WS020/16050KT
     FM240800 17013KT 1SM -RA OVC003
     FM240900 18012KT 2SM -RA OVC008=

USA.gov is the U.S. government's official web portal to all federal, state and local government web resources and services.